createdAt,value
2019-05-01T00:00:41.701Z,24.80
2019-05-01T00:01:42.036Z,24.90
2019-05-01T00:02:50.631Z,25.00
2019-05-01T00:03:55.045Z,25.10
2019-05-01T00:04:52.494Z,25.20
2019-05-01T00:05:36.040Z,25.20
2019-05-01T00:06:14.948Z,25.10
2019-05-01T00:06:56.192Z,25.00
2019-05-01T00:07:39.011Z,24.90
2019-05-01T00:08:18.469Z,24.80
2019-05-01T00:08:59.976Z,24.70
2019-05-01T00:09:39.278Z,24.60
2019-05-01T00:10:18.355Z,24.50
2019-05-01T00:10:57.337Z,24.50
2019-05-01T00:11:36.850Z,24.60
2019-05-01T00:12:15.949Z,24.70
2019-05-01T00:12:54.953Z,24.80
2019-05-01T00:13:33.711Z,24.90
2019-05-01T00:14:13.345Z,25.00
2019-05-01T00:14:52.073Z,25.10
2019-05-01T00:15:33.927Z,25.10
2019-05-01T00:16:12.860Z,25.20
2019-05-01T00:16:51.665Z,25.20
2019-05-01T00:17:31.199Z,25.30
2019-05-01T00:18:10.736Z,25.20
2019-05-01T00:18:50.736Z,25.10
2019-05-01T00:19:30.068Z,25.00
2019-05-01T00:20:09.272Z,24.90
2019-05-01T00:20:48.091Z,24.80
2019-05-01T00:21:26.746Z,24.70
2019-05-01T00:22:05.925Z,24.70
2019-05-01T00:22:45.053Z,24.70
2019-05-01T00:23:24.258Z,24.70
2019-05-01T00:24:03.433Z,24.80
2019-05-01T00:24:43.039Z,24.80
2019-05-01T00:25:22.521Z,24.90
2019-05-01T00:26:01.877Z,24.90
2019-05-01T00:26:40.540Z,25.00
2019-05-01T00:27:20.118Z,25.10
2019-05-01T00:27:59.641Z,25.10
2019-05-01T00:28:38.830Z,25.20
2019-05-01T00:29:18.140Z,25.20
2019-05-01T00:29:57.516Z,25.20
2019-05-01T00:30:37.156Z,25.10
2019-05-01T00:31:16.286Z,25.00
2019-05-01T00:31:56.495Z,25.00
2019-05-01T00:32:35.503Z,24.90
2019-05-01T00:33:15.422Z,24.80
2019-05-01T00:33:54.605Z,24.70
2019-05-01T00:34:34.015Z,24.60
2019-05-01T00:35:12.664Z,24.60
2019-05-01T00:35:51.851Z,24.60
2019-05-01T00:36:31.410Z,24.60
2019-05-01T00:37:10.813Z,24.70
2019-05-01T00:37:50.072Z,24.70
2019-05-01T00:38:28.831Z,24.90
2019-05-01T00:39:09.298Z,24.90
2019-05-01T00:39:47.980Z,25.00
2019-05-01T00:40:26.725Z,25.10
2019-05-01T00:41:06.048Z,25.10
2019-05-01T00:41:45.431Z,25.20
2019-05-01T00:42:24.789Z,25.20
2019-05-01T00:43:04.660Z,25.20
2019-05-01T00:43:44.090Z,25.10
2019-05-01T00:44:23.466Z,25.00
2019-05-01T00:45:02.521Z,24.90
2019-05-01T00:45:42.113Z,24.80
2019-05-01T00:46:20.902Z,24.70
2019-05-01T00:46:59.547Z,24.60
2019-05-01T00:47:38.317Z,24.60
2019-05-01T00:48:17.045Z,24.60
2019-05-01T00:48:55.673Z,24.70
2019-05-01T00:49:35.067Z,24.70
2019-05-01T00:50:14.150Z,24.80
2019-05-01T00:50:52.817Z,24.90
2019-05-01T00:51:32.196Z,25.00
2019-05-01T00:52:11.029Z,25.00
2019-05-01T00:52:49.722Z,25.10
2019-05-01T00:53:28.572Z,25.20
2019-05-01T00:54:07.402Z,25.20
2019-05-01T00:54:47.983Z,25.30
2019-05-01T00:56:02.955Z,25.20
2019-05-01T00:56:55.899Z,25.20
2019-05-01T00:57:41.069Z,25.00
2019-05-01T00:58:36.191Z,24.90
2019-05-01T00:59:45.829Z,24.90
2019-05-01T01:00:51.572Z,24.70
2019-05-01T01:01:46.555Z,24.70
2019-05-01T01:02:34.558Z,24.70
2019-05-01T01:03:13.768Z,24.80
2019-05-01T01:03:52.671Z,24.90
2019-05-01T01:04:32.066Z,25.00
2019-05-01T01:05:10.859Z,25.10
2019-05-01T01:05:50.270Z,25.10
2019-05-01T01:06:29.188Z,25.20
2019-05-01T01:07:08.438Z,25.20
2019-05-01T01:07:47.098Z,25.30
2019-05-01T01:08:26.317Z,25.20
2019-05-01T01:09:05.702Z,25.10
2019-05-01T01:09:44.397Z,25.00
2019-05-01T01:10:23.739Z,24.90
2019-05-01T01:11:02.416Z,24.90
2019-05-01T01:11:42.001Z,24.70
2019-05-01T01:12:21.034Z,24.60
2019-05-01T01:13:00.115Z,24.70
2019-05-01T01:13:39.010Z,24.70
2019-05-01T01:14:17.675Z,24.70
2019-05-01T01:14:56.531Z,24.80
2019-05-01T01:15:35.877Z,24.90
2019-05-01T01:16:15.701Z,24.90
2019-05-01T01:16:55.133Z,25.00
2019-05-01T01:17:33.848Z,25.10
2019-05-01T01:18:12.813Z,25.10
2019-05-01T01:18:52.499Z,25.20
2019-05-01T01:19:31.252Z,25.20
2019-05-01T01:20:10.096Z,25.20
2019-05-01T01:20:49.821Z,25.10
2019-05-01T01:21:29.288Z,25.00
2019-05-01T01:22:08.262Z,25.00
2019-05-01T01:22:47.589Z,24.90
2019-05-01T01:23:26.762Z,24.80
2019-05-01T01:24:06.030Z,24.70
2019-05-01T01:24:45.171Z,24.60
2019-05-01T01:25:23.966Z,24.70
2019-05-01T01:26:02.651Z,24.70
2019-05-01T01:26:41.953Z,24.80
2019-05-01T01:27:20.876Z,24.90
2019-05-01T01:28:00.131Z,24.90
2019-05-01T01:28:39.085Z,25.00
2019-05-01T01:29:18.875Z,25.10
2019-05-01T01:29:58.017Z,25.20
2019-05-01T01:30:37.068Z,25.30
2019-05-01T01:31:15.970Z,25.30
2019-05-01T01:31:55.079Z,25.30
2019-05-01T01:32:34.337Z,25.20
2019-05-01T01:33:13.050Z,25.10
2019-05-01T01:33:51.876Z,25.00
2019-05-01T01:34:30.808Z,24.90
2019-05-01T01:35:09.808Z,24.90
2019-05-01T01:35:48.858Z,24.70
2019-05-01T01:36:27.978Z,24.60
2019-05-01T01:37:07.265Z,24.60
2019-05-01T01:37:46.730Z,24.70
2019-05-01T01:38:25.389Z,24.70
2019-05-01T01:39:04.187Z,24.80
2019-05-01T01:39:43.198Z,24.90
2019-05-01T01:40:22.445Z,25.00
2019-05-01T01:41:01.561Z,25.10
2019-05-01T01:41:40.451Z,25.20
2019-05-01T01:42:19.197Z,25.20
2019-05-01T01:43:00.400Z,25.30
2019-05-01T01:44:04.403Z,25.40
2019-05-01T01:44:50.063Z,25.50
2019-05-01T01:45:44.917Z,25.40
2019-05-01T01:46:24.233Z,25.30
2019-05-01T01:47:03.081Z,25.20
2019-05-01T01:48:00.031Z,25.20
2019-05-01T01:48:39.376Z,25.10
2019-05-01T01:49:18.491Z,25.00
2019-05-01T01:49:58.045Z,24.90
2019-05-01T01:50:37.412Z,24.90
2019-05-01T01:51:16.139Z,24.80
2019-05-01T01:51:54.919Z,24.70
2019-05-01T01:52:34.227Z,24.70
2019-05-01T01:53:13.110Z,24.60
2019-05-01T01:53:52.316Z,24.60
2019-05-01T01:54:31.775Z,24.60
2019-05-01T01:55:11.083Z,24.50
2019-05-01T01:55:49.900Z,24.50
2019-05-01T01:56:28.476Z,24.50
2019-05-01T01:57:07.817Z,24.60
2019-05-01T01:57:46.548Z,24.60
2019-05-01T01:58:25.272Z,24.70
2019-05-01T01:59:04.631Z,24.80
2019-05-01T01:59:43.531Z,24.90
2019-05-01T02:00:23.781Z,25.00
2019-05-01T02:01:19.561Z,25.10
2019-05-01T02:02:22.635Z,25.30
2019-05-01T02:03:03.916Z,25.40
2019-05-01T02:03:45.119Z,25.50
2019-05-01T02:04:41.842Z,25.60
2019-05-01T02:05:24.715Z,25.60
2019-05-01T02:06:03.683Z,25.80
2019-05-01T02:06:42.362Z,25.80
2019-05-01T02:07:21.699Z,25.80
2019-05-01T02:08:01.093Z,25.90
2019-05-01T02:08:40.186Z,25.90
2019-05-01T02:09:19.606Z,26.00
2019-05-01T02:09:58.871Z,26.00
2019-05-01T02:10:42.838Z,26.00
2019-05-01T02:11:18.361Z,26.10
2019-05-01T02:11:57.593Z,26.10
2019-05-01T02:12:36.840Z,26.20
2019-05-01T02:13:15.545Z,26.20
2019-05-01T02:13:58.136Z,26.20
2019-05-01T02:14:36.893Z,26.20
2019-05-01T02:15:15.596Z,26.20
2019-05-01T02:15:56.789Z,26.30
2019-05-01T02:16:36.206Z,26.30
2019-05-01T02:17:14.984Z,26.30
2019-05-01T02:17:54.282Z,26.30
2019-05-01T02:18:33.363Z,26.40
2019-05-01T02:19:13.023Z,26.40
2019-05-01T02:19:52.414Z,26.40
2019-05-01T02:20:32.113Z,26.40
2019-05-01T02:21:11.583Z,26.40
2019-05-01T02:21:50.783Z,26.40
2019-05-01T02:22:30.105Z,26.40
2019-05-01T02:23:08.883Z,26.40
2019-05-01T02:23:47.601Z,26.40
2019-05-01T02:24:27.056Z,26.40
2019-05-01T02:25:07.439Z,26.40
2019-05-01T02:25:47.035Z,26.40
2019-05-01T02:26:27.408Z,26.50
2019-05-01T02:27:10.510Z,26.50
2019-05-01T02:28:07.760Z,26.50
2019-05-01T02:28:52.204Z,26.50
2019-05-01T02:29:36.742Z,26.50
2019-05-01T02:30:16.920Z,26.50
2019-05-01T02:31:26.681Z,26.50
2019-05-01T02:31:50.626Z,26.50
2019-05-01T02:32:30.595Z,26.60
2019-05-01T02:33:10.048Z,26.60
2019-05-01T02:33:48.895Z,26.60
2019-05-01T02:34:27.515Z,26.60
2019-05-01T02:35:06.464Z,26.60
2019-05-01T02:35:45.657Z,26.60
2019-05-01T02:36:24.698Z,26.60
2019-05-01T02:37:03.945Z,26.60
2019-05-01T02:37:43.560Z,26.60
2019-05-01T02:38:22.919Z,26.60
2019-05-01T02:39:02.461Z,26.60
2019-05-01T02:39:42.008Z,26.60
2019-05-01T02:41:03.588Z,26.70
2019-05-01T02:41:45.554Z,26.70
2019-05-01T02:42:25.955Z,26.70
2019-05-01T02:43:05.131Z,26.70
2019-05-01T02:43:44.178Z,26.70
2019-05-01T02:44:29.149Z,26.70
2019-05-01T02:45:07.885Z,26.70
2019-05-01T02:45:46.788Z,26.70
2019-05-01T02:46:26.116Z,26.70
2019-05-01T02:47:06.275Z,26.80
2019-05-01T02:47:45.437Z,26.80
2019-05-01T02:48:24.995Z,26.80
2019-05-01T02:49:09.623Z,26.80
2019-05-01T02:49:56.582Z,26.80
2019-05-01T02:50:35.939Z,26.80
2019-05-01T02:51:15.292Z,26.80
2019-05-01T02:51:54.748Z,26.80
2019-05-01T02:52:37.034Z,26.80
2019-05-01T02:53:16.283Z,26.80
2019-05-01T02:53:55.535Z,26.80
2019-05-01T02:54:34.293Z,26.80
2019-05-01T02:55:22.541Z,26.80
2019-05-01T02:56:25.969Z,26.80
2019-05-01T02:57:12.095Z,26.80
2019-05-01T02:57:50.788Z,26.90
2019-05-01T02:58:30.471Z,26.90
2019-05-01T02:59:09.791Z,26.90
2019-05-01T02:59:49.656Z,26.90
2019-05-01T03:00:28.375Z,27.00
2019-05-01T03:01:07.160Z,27.00
2019-05-01T03:01:47.888Z,27.00
2019-05-01T03:02:27.075Z,27.00
2019-05-01T03:03:06.331Z,27.00
2019-05-01T03:03:45.633Z,27.00
2019-05-01T03:04:25.103Z,27.00
2019-05-01T03:05:04.453Z,27.00
2019-05-01T03:05:43.741Z,27.00
2019-05-01T03:06:22.916Z,27.00
2019-05-01T03:07:01.606Z,27.00
2019-05-01T03:07:40.989Z,27.00
2019-05-01T03:08:20.637Z,27.00
2019-05-01T03:08:59.721Z,27.00
2019-05-01T03:09:38.811Z,27.00
2019-05-01T03:10:17.531Z,27.00
2019-05-01T03:10:56.687Z,27.10
2019-05-01T03:11:35.444Z,27.10
2019-05-01T03:12:14.394Z,27.10
2019-05-01T03:12:53.149Z,27.10
2019-05-01T03:13:32.372Z,27.10
2019-05-01T03:14:11.537Z,27.10
2019-05-01T03:14:51.247Z,27.10
2019-05-01T03:15:30.192Z,27.10
2019-05-01T03:16:08.880Z,27.10
2019-05-01T03:16:47.896Z,27.10
2019-05-01T03:17:43.609Z,27.10
2019-05-01T03:18:31.175Z,27.10
2019-05-01T03:19:12.714Z,27.10
2019-05-01T03:20:03.505Z,27.10
2019-05-01T03:20:51.962Z,27.10
2019-05-01T03:21:38.736Z,27.10
2019-05-01T03:22:28.995Z,27.20
2019-05-01T03:23:32.374Z,27.10
2019-05-01T03:24:17.343Z,27.20
2019-05-01T03:24:56.528Z,27.20
2019-05-01T03:25:35.889Z,27.20
2019-05-01T03:26:14.602Z,27.20
2019-05-01T03:26:53.428Z,27.20
2019-05-01T03:27:33.400Z,27.20
2019-05-01T03:28:14.298Z,27.20
2019-05-01T03:28:54.072Z,27.20
2019-05-01T03:29:32.758Z,27.20
2019-05-01T03:30:12.003Z,27.20
2019-05-01T03:30:50.819Z,27.20
2019-05-01T03:31:29.988Z,27.30
2019-05-01T03:32:18.594Z,27.30
2019-05-01T03:32:52.093Z,27.30
2019-05-01T03:33:31.469Z,27.30
2019-05-01T03:34:10.306Z,27.30
2019-05-01T03:34:52.587Z,27.30
2019-05-01T03:35:29.633Z,27.30
2019-05-01T03:36:08.965Z,27.30
2019-05-01T03:36:48.645Z,27.40
2019-05-01T03:37:28.091Z,27.40
2019-05-01T03:38:07.608Z,27.30
2019-05-01T03:38:46.537Z,27.40
2019-05-01T03:39:25.898Z,27.40
2019-05-01T03:40:05.350Z,27.40
2019-05-01T03:40:44.640Z,27.40
2019-05-01T03:41:23.317Z,27.40
2019-05-01T03:42:02.210Z,27.40
2019-05-01T03:42:44.807Z,27.40
2019-05-01T03:43:24.052Z,27.40
2019-05-01T03:44:03.580Z,27.40
2019-05-01T03:44:42.262Z,27.40
2019-05-01T03:45:21.003Z,27.40
2019-05-01T03:46:00.518Z,27.40
2019-05-01T03:46:39.933Z,27.40
2019-05-01T03:47:19.347Z,27.40
2019-05-01T03:47:58.677Z,27.50
2019-05-01T03:48:38.268Z,27.40
2019-05-01T03:49:17.946Z,27.40
2019-05-01T03:49:56.745Z,27.40
2019-05-01T03:50:35.415Z,27.50
2019-05-01T03:51:14.111Z,27.50
2019-05-01T03:51:52.912Z,27.40
2019-05-01T03:52:31.837Z,27.50
2019-05-01T03:53:11.307Z,27.50
2019-05-01T03:53:50.874Z,27.50
2019-05-01T03:54:31.881Z,27.50
2019-05-01T03:55:09.726Z,27.50
2019-05-01T03:55:49.025Z,27.50
2019-05-01T03:56:28.936Z,27.50
2019-05-01T03:57:08.363Z,27.50
2019-05-01T03:57:47.323Z,27.50
2019-05-01T03:58:27.119Z,27.50
2019-05-01T03:59:06.565Z,27.60
2019-05-01T03:59:45.957Z,27.60
2019-05-01T04:00:35.837Z,27.60
2019-05-01T04:01:21.196Z,27.60
2019-05-01T04:02:11.064Z,27.60
2019-05-01T04:03:08.018Z,27.60
2019-05-01T04:03:51.102Z,27.60
2019-05-01T04:04:31.440Z,27.60
2019-05-01T04:05:10.331Z,27.60
2019-05-01T04:05:49.053Z,27.60
2019-05-01T04:06:28.202Z,27.60
2019-05-01T04:07:07.733Z,27.70
2019-05-01T04:07:46.360Z,27.70
2019-05-01T04:08:25.807Z,27.70
2019-05-01T04:09:05.509Z,27.70
2019-05-01T04:09:44.432Z,27.70
2019-05-01T04:10:23.572Z,27.70
2019-05-01T04:11:02.899Z,27.70
2019-05-01T04:11:42.082Z,27.70
2019-05-01T04:12:20.835Z,27.70
2019-05-01T04:12:59.968Z,27.70
2019-05-01T04:13:38.720Z,27.70
2019-05-01T04:14:17.546Z,27.70
2019-05-01T04:14:56.717Z,27.70
2019-05-01T04:15:35.369Z,27.70
2019-05-01T04:16:14.199Z,27.70
2019-05-01T04:16:58.684Z,27.70
2019-05-01T04:17:43.071Z,27.70
2019-05-01T04:18:22.311Z,27.70
2019-05-01T04:19:01.682Z,27.70
2019-05-01T04:19:40.415Z,27.80
2019-05-01T04:20:19.152Z,27.70
2019-05-01T04:20:58.627Z,27.80
2019-05-01T04:21:51.602Z,27.80
2019-05-01T04:22:31.103Z,27.80
2019-05-01T04:23:10.498Z,27.80
2019-05-01T04:23:49.141Z,27.80
2019-05-01T04:24:28.081Z,27.80
2019-05-01T04:25:07.884Z,27.80
2019-05-01T04:25:47.119Z,27.80
2019-05-01T04:26:25.828Z,27.80
2019-05-01T04:27:05.730Z,27.80
2019-05-01T04:27:47.131Z,27.90
2019-05-01T04:29:00.599Z,27.80
2019-05-01T04:29:52.561Z,27.90
2019-05-01T04:30:48.678Z,27.90
2019-05-01T04:31:43.331Z,27.90
2019-05-01T04:32:28.562Z,27.90
2019-05-01T04:33:09.130Z,27.90
2019-05-01T04:33:48.173Z,27.90
2019-05-01T04:34:54.950Z,27.90
2019-05-01T04:35:53.081Z,27.90
2019-05-01T04:36:36.900Z,27.90
2019-05-01T04:37:16.518Z,27.90
2019-05-01T04:37:57.273Z,27.90
2019-05-01T04:38:36.195Z,27.90
2019-05-01T04:39:15.548Z,27.90
2019-05-01T04:39:54.693Z,27.90
2019-05-01T04:40:33.888Z,28.00
2019-05-01T04:41:12.937Z,28.00
2019-05-01T04:41:51.648Z,28.00
2019-05-01T04:42:30.841Z,28.00
2019-05-01T04:43:10.442Z,28.00
2019-05-01T04:43:49.112Z,28.00
2019-05-01T04:44:27.836Z,28.00
2019-05-01T04:45:06.531Z,28.00
2019-05-01T04:45:46.750Z,28.00
2019-05-01T04:46:25.469Z,28.00
2019-05-01T04:47:04.175Z,28.00
2019-05-01T04:47:43.490Z,28.10
2019-05-01T04:48:22.273Z,28.10
2019-05-01T04:49:01.708Z,28.10
2019-05-01T04:49:40.405Z,28.10
2019-05-01T04:50:19.573Z,28.10
2019-05-01T04:50:58.243Z,28.10
2019-05-01T04:51:37.270Z,28.10
2019-05-01T04:52:16.260Z,28.10
2019-05-01T04:52:55.223Z,28.10
2019-05-01T04:53:34.737Z,28.10
2019-05-01T04:54:13.391Z,28.10
2019-05-01T04:54:54.632Z,28.10
2019-05-01T04:55:33.375Z,28.10
2019-05-01T04:56:12.359Z,28.10
2019-05-01T04:56:51.845Z,28.10
2019-05-01T04:57:30.739Z,28.10
2019-05-01T04:58:09.469Z,28.10
2019-05-01T04:58:48.096Z,28.10
2019-05-01T04:59:26.859Z,28.20
2019-05-01T05:00:06.346Z,28.10
2019-05-01T05:00:45.561Z,28.20
2019-05-01T05:01:24.502Z,28.20
2019-05-01T05:02:04.863Z,28.20
2019-05-01T05:03:04.547Z,28.20
2019-05-01T05:03:36.497Z,28.20
2019-05-01T05:04:15.687Z,28.20
2019-05-01T05:04:54.302Z,28.20
2019-05-01T05:05:33.096Z,28.20
2019-05-01T05:06:12.350Z,28.20
2019-05-01T05:06:51.887Z,28.20
2019-05-01T05:07:30.647Z,28.20
2019-05-01T05:08:09.391Z,28.20
2019-05-01T05:08:48.407Z,28.20
2019-05-01T05:10:00.704Z,28.20
2019-05-01T05:10:39.325Z,28.30
2019-05-01T05:11:22.796Z,28.30
2019-05-01T05:12:03.405Z,28.30
2019-05-01T05:12:51.464Z,28.30
2019-05-01T05:13:46.977Z,28.30
2019-05-01T05:14:28.485Z,28.30
2019-05-01T05:15:24.512Z,28.30
2019-05-01T05:16:12.623Z,28.40
2019-05-01T05:17:12.803Z,28.30
2019-05-01T05:17:51.354Z,28.50
2019-05-01T05:18:30.051Z,28.60
2019-05-01T05:19:08.689Z,28.70
2019-05-01T05:19:48.137Z,28.70
2019-05-01T05:20:27.532Z,28.60
2019-05-01T05:21:06.857Z,28.60
2019-05-01T05:21:46.166Z,28.60
2019-05-01T05:22:25.632Z,28.60
2019-05-01T05:23:04.868Z,28.60
2019-05-01T05:23:44.433Z,28.60
2019-05-01T05:24:23.089Z,28.60
2019-05-01T05:25:01.854Z,28.60
2019-05-01T05:25:40.535Z,28.60
2019-05-01T05:26:19.237Z,28.60
2019-05-01T05:26:58.393Z,28.60
2019-05-01T05:27:37.737Z,28.60
2019-05-01T05:28:16.970Z,28.50
2019-05-01T05:28:56.317Z,28.60
2019-05-01T05:29:35.470Z,28.60
2019-05-01T05:30:14.787Z,28.60
2019-05-01T05:30:53.627Z,28.60
2019-05-01T05:31:32.351Z,28.50
2019-05-01T05:32:11.737Z,28.60
2019-05-01T05:32:50.718Z,28.60
2019-05-01T05:33:29.288Z,28.60
2019-05-01T05:34:08.684Z,28.60
2019-05-01T05:34:47.979Z,28.60
2019-05-01T05:35:27.206Z,28.60
2019-05-01T05:36:06.935Z,28.60
2019-05-01T05:36:45.605Z,28.60
2019-05-01T05:37:28.598Z,28.60
2019-05-01T05:38:35.649Z,28.60
2019-05-01T05:39:23.270Z,28.60
2019-05-01T05:40:02.584Z,28.60
2019-05-01T05:40:41.374Z,28.60
2019-05-01T05:41:21.266Z,28.60
2019-05-01T05:41:59.935Z,28.60
2019-05-01T05:42:39.478Z,28.60
2019-05-01T05:43:18.543Z,28.60
2019-05-01T05:43:57.277Z,28.60
2019-05-01T05:44:36.302Z,28.60
2019-05-01T05:45:14.944Z,28.60
2019-05-01T05:45:53.675Z,28.60
2019-05-01T05:46:32.430Z,28.60
2019-05-01T05:47:11.201Z,28.60
2019-05-01T05:47:50.154Z,28.60
2019-05-01T05:48:28.913Z,28.60
2019-05-01T05:49:08.164Z,28.60
2019-05-01T05:49:46.815Z,28.60
2019-05-01T05:50:26.915Z,28.60
2019-05-01T05:51:28.282Z,28.60
2019-05-01T05:52:31.178Z,28.60
2019-05-01T05:53:11.152Z,28.70
2019-05-01T05:53:50.613Z,28.70
2019-05-01T05:54:59.694Z,28.70
2019-05-01T05:55:42.344Z,28.70
2019-05-01T05:56:26.324Z,28.70
2019-05-01T05:57:12.994Z,28.70
2019-05-01T05:58:08.624Z,28.70
2019-05-01T05:58:50.815Z,28.70
2019-05-01T05:59:30.928Z,28.70
2019-05-01T06:00:31.938Z,28.70
2019-05-01T06:01:21.474Z,28.70
2019-05-01T06:02:18.210Z,28.80
2019-05-01T06:03:07.514Z,28.80
2019-05-01T06:03:58.879Z,28.80
2019-05-01T06:05:06.556Z,28.80
2019-05-01T06:06:06.628Z,28.80
2019-05-01T06:06:54.533Z,28.80
2019-05-01T06:07:44.084Z,28.80
2019-05-01T06:08:24.554Z,28.80
2019-05-01T06:09:03.231Z,28.80
2019-05-01T06:10:05.778Z,28.80
2019-05-01T06:10:53.697Z,28.80
2019-05-01T06:12:09.038Z,28.80
2019-05-01T06:13:13.211Z,28.80
2019-05-01T06:14:15.477Z,28.80
2019-05-01T06:15:02.346Z,28.90
2019-05-01T06:16:02.774Z,28.90
2019-05-01T06:16:52.155Z,28.90
2019-05-01T06:17:54.491Z,28.90
2019-05-01T06:18:55.112Z,28.90
2019-05-01T06:19:55.113Z,28.90
2019-05-01T06:20:42.683Z,28.90
2019-05-01T06:21:40.286Z,28.90
2019-05-01T06:22:33.335Z,28.90
2019-05-01T06:23:28.765Z,28.90
2019-05-01T06:24:16.107Z,28.90
2019-05-01T06:24:59.111Z,28.90
2019-05-01T06:25:39.245Z,28.90
2019-05-01T06:26:32.218Z,28.90
2019-05-01T06:27:13.861Z,29.00
2019-05-01T06:27:52.283Z,29.00
2019-05-01T06:28:31.201Z,29.00
2019-05-01T06:29:10.664Z,29.00
2019-05-01T06:29:50.104Z,29.00
2019-05-01T06:30:28.920Z,29.00
2019-05-01T06:31:22.877Z,29.00
2019-05-01T06:32:01.138Z,29.00
2019-05-01T06:32:40.395Z,29.00
2019-05-01T06:33:19.963Z,29.00
2019-05-01T06:33:59.351Z,29.00
2019-05-01T06:34:38.791Z,29.00
2019-05-01T06:35:17.443Z,29.00
2019-05-01T06:35:56.099Z,29.00
2019-05-01T06:36:35.089Z,29.00
2019-05-01T06:37:14.500Z,29.10
2019-05-01T06:38:05.034Z,29.10
2019-05-01T06:38:43.732Z,29.10
2019-05-01T06:39:22.602Z,29.10
2019-05-01T06:40:02.986Z,29.10
2019-05-01T06:40:46.381Z,29.10
2019-05-01T06:41:28.750Z,29.10
2019-05-01T06:42:09.844Z,29.10
2019-05-01T06:42:50.097Z,29.10
2019-05-01T06:43:47.186Z,29.10
2019-05-01T06:44:44.045Z,29.10
2019-05-01T06:45:22.675Z,29.10
2019-05-01T06:46:21.941Z,29.10
2019-05-01T06:47:19.353Z,29.10
2019-05-01T06:48:03.412Z,29.10
2019-05-01T06:48:43.552Z,29.10
2019-05-01T06:49:38.923Z,29.10
2019-05-01T06:50:37.140Z,29.10
2019-05-01T06:51:30.913Z,29.20
2019-05-01T06:52:10.710Z,29.20
2019-05-01T06:52:49.418Z,29.20
2019-05-01T06:53:28.043Z,29.20
2019-05-01T06:54:11.471Z,29.20
2019-05-01T06:54:47.810Z,29.20
2019-05-01T06:55:28.914Z,29.20
2019-05-01T06:56:07.900Z,29.20
2019-05-01T06:56:47.283Z,29.20
2019-05-01T06:57:26.182Z,29.20
2019-05-01T06:58:05.663Z,29.20
2019-05-01T06:58:45.062Z,29.20
2019-05-01T06:59:26.193Z,29.20
2019-05-01T07:00:08.038Z,29.20
2019-05-01T07:00:47.747Z,29.20
2019-05-01T07:01:27.569Z,29.20
2019-05-01T07:02:06.665Z,29.20
2019-05-01T07:02:45.654Z,29.20
2019-05-01T07:03:24.940Z,29.30
2019-05-01T07:04:04.200Z,29.30
2019-05-01T07:04:43.824Z,29.30
2019-05-01T07:05:23.085Z,29.30
2019-05-01T07:06:13.822Z,29.30
2019-05-01T07:06:41.838Z,29.30
2019-05-01T07:07:27.367Z,29.30
2019-05-01T07:08:00.744Z,29.30
2019-05-01T07:08:39.700Z,29.30
2019-05-01T07:09:27.870Z,29.30
2019-05-01T07:09:59.241Z,29.30
2019-05-01T07:10:44.288Z,29.30
2019-05-01T07:11:18.440Z,29.30
2019-05-01T07:11:57.550Z,29.30
2019-05-01T07:12:36.759Z,29.30
2019-05-01T07:13:16.289Z,29.30
2019-05-01T07:13:55.745Z,29.30
2019-05-01T07:14:34.679Z,29.30
2019-05-01T07:15:14.518Z,29.40
2019-05-01T07:15:53.601Z,29.30
2019-05-01T07:16:38.063Z,29.30
2019-05-01T07:17:14.837Z,29.30
2019-05-01T07:17:54.304Z,29.40
2019-05-01T07:18:32.945Z,29.40
2019-05-01T07:19:12.410Z,29.40
2019-05-01T07:20:18.720Z,29.40
2019-05-01T07:20:57.742Z,29.40
2019-05-01T07:21:36.971Z,29.40
2019-05-01T07:22:17.688Z,29.40
2019-05-01T07:22:56.939Z,29.40
2019-05-01T07:23:36.286Z,29.40
2019-05-01T07:24:16.115Z,29.40
2019-05-01T07:24:58.888Z,29.40
2019-05-01T07:25:39.459Z,29.40
2019-05-01T07:26:17.002Z,29.40
2019-05-01T07:26:56.553Z,29.40
2019-05-01T07:27:35.294Z,29.40
2019-05-01T07:28:13.959Z,29.40
2019-05-01T07:28:54.188Z,29.40
2019-05-01T07:29:35.067Z,29.40
2019-05-01T07:30:34.510Z,29.40
2019-05-01T07:31:16.043Z,29.40
2019-05-01T07:31:55.343Z,29.40
2019-05-01T07:32:36.415Z,29.40
2019-05-01T07:33:16.738Z,29.40
2019-05-01T07:33:56.056Z,29.40
2019-05-01T07:34:34.759Z,29.50
2019-05-01T07:35:14.380Z,29.50
2019-05-01T07:35:54.046Z,29.50
2019-05-01T07:36:33.611Z,29.40
2019-05-01T07:37:12.810Z,29.50
2019-05-01T07:37:51.512Z,29.50
2019-05-01T07:38:32.870Z,29.50
2019-05-01T07:39:14.672Z,29.50
2019-05-01T07:39:51.822Z,29.50
2019-05-01T07:40:30.555Z,29.50
2019-05-01T07:41:12.290Z,29.50
2019-05-01T07:41:50.183Z,29.50
2019-05-01T07:42:30.192Z,29.50
2019-05-01T07:43:26.826Z,29.50
2019-05-01T07:44:16.061Z,29.50
2019-05-01T07:44:56.302Z,29.50
2019-05-01T07:45:44.815Z,29.50
2019-05-01T07:46:32.671Z,29.50
2019-05-01T07:47:25.832Z,29.60
2019-05-01T07:48:05.588Z,29.60
2019-05-01T07:48:43.950Z,29.60
2019-05-01T07:49:26.363Z,29.60
2019-05-01T07:50:07.529Z,29.60
2019-05-01T07:50:46.178Z,29.70
2019-05-01T07:51:25.546Z,29.80
2019-05-01T07:52:22.807Z,29.80
2019-05-01T07:53:01.497Z,29.80
2019-05-01T07:53:40.891Z,29.90
2019-05-01T07:54:19.977Z,29.90
2019-05-01T07:54:59.831Z,29.90
2019-05-01T07:55:39.287Z,29.90
2019-05-01T07:56:18.390Z,29.90
2019-05-01T07:56:58.740Z,29.90
2019-05-01T07:57:39.658Z,29.90
2019-05-01T07:58:18.324Z,29.90
2019-05-01T07:58:57.053Z,29.90
2019-05-01T07:59:36.363Z,29.90
2019-05-01T08:00:25.668Z,29.80
2019-05-01T08:01:12.988Z,29.80
2019-05-01T08:02:01.169Z,29.80
2019-05-01T08:02:40.363Z,29.80
2019-05-01T08:03:19.681Z,29.80
2019-05-01T08:03:58.826Z,29.80
2019-05-01T08:04:38.047Z,29.70
2019-05-01T08:05:16.774Z,29.80
2019-05-01T08:05:55.467Z,29.70
2019-05-01T08:06:34.412Z,29.80
2019-05-01T08:07:13.874Z,29.70
2019-05-01T08:07:52.469Z,29.80
2019-05-01T08:08:31.809Z,29.80
2019-05-01T08:09:14.890Z,29.70
2019-05-01T08:09:51.486Z,29.70
2019-05-01T08:10:33.729Z,29.70
2019-05-01T08:11:12.156Z,29.80
2019-05-01T08:11:51.079Z,29.70
2019-05-01T08:12:30.595Z,29.80
2019-05-01T08:13:10.561Z,29.70
2019-05-01T08:13:49.238Z,29.80
2019-05-01T08:14:28.813Z,29.80
2019-05-01T08:15:08.116Z,29.80
2019-05-01T08:15:47.538Z,29.80
2019-05-01T08:16:26.866Z,29.80
2019-05-01T08:17:06.031Z,29.80
2019-05-01T08:17:48.766Z,29.80
2019-05-01T08:18:36.163Z,29.70
2019-05-01T08:19:22.969Z,29.80
2019-05-01T08:20:14.952Z,29.80
2019-05-01T08:20:56.834Z,29.80
2019-05-01T08:22:01.769Z,29.80
2019-05-01T08:22:40.817Z,29.80
2019-05-01T08:23:20.184Z,29.80
2019-05-01T08:23:59.635Z,29.80
2019-05-01T08:24:38.939Z,29.80
2019-05-01T08:25:17.729Z,29.80
2019-05-01T08:25:56.479Z,29.80
2019-05-01T08:26:35.168Z,29.80
2019-05-01T08:27:26.984Z,29.80
2019-05-01T08:28:16.435Z,29.80
2019-05-01T08:29:26.374Z,29.80
2019-05-01T08:30:23.130Z,29.80
2019-05-01T08:31:27.651Z,29.80
2019-05-01T08:32:38.931Z,29.80
2019-05-01T08:33:49.854Z,29.80
2019-05-01T08:34:29.782Z,29.80
2019-05-01T08:35:12.335Z,29.80
2019-05-01T08:35:50.940Z,29.80
2019-05-01T08:36:30.159Z,29.80
2019-05-01T08:37:08.815Z,29.90
2019-05-01T08:37:47.442Z,29.90
2019-05-01T08:38:29.766Z,29.90
2019-05-01T08:39:09.076Z,29.80
2019-05-01T08:39:48.773Z,29.90
2019-05-01T08:40:27.426Z,29.90
2019-05-01T08:41:07.000Z,29.90
2019-05-01T08:41:45.643Z,29.90
2019-05-01T08:42:24.246Z,29.90
2019-05-01T08:43:21.239Z,29.90
2019-05-01T08:44:01.021Z,29.90
2019-05-01T08:44:49.859Z,29.90
2019-05-01T08:45:59.626Z,29.90
2019-05-01T08:46:59.076Z,29.90
2019-05-01T08:47:38.473Z,29.90
2019-05-01T08:48:35.733Z,29.90
2019-05-01T08:49:33.031Z,29.90
2019-05-01T08:50:15.582Z,29.90
2019-05-01T08:50:58.793Z,29.90
2019-05-01T08:51:36.027Z,29.90
2019-05-01T08:52:16.175Z,29.90
2019-05-01T08:52:55.289Z,29.90
2019-05-01T08:53:34.261Z,29.90
2019-05-01T08:54:13.621Z,29.90
2019-05-01T08:54:54.818Z,29.90
2019-05-01T08:55:33.629Z,30.00
2019-05-01T08:56:17.120Z,30.00
2019-05-01T08:56:57.961Z,30.00
2019-05-01T08:57:39.214Z,30.00
2019-05-01T08:58:16.308Z,30.00
2019-05-01T08:58:58.099Z,30.00
2019-05-01T08:59:37.140Z,30.00
2019-05-01T09:00:15.937Z,30.00
2019-05-01T09:00:55.258Z,30.00
2019-05-01T09:01:34.471Z,30.00
2019-05-01T09:02:13.574Z,30.00
2019-05-01T09:02:52.310Z,30.00
2019-05-01T09:03:31.392Z,30.00